createdAt,value
2023-05-16T00:00:35.592Z,1.40
2023-05-16T00:02:37.851Z,1.50
2023-05-16T00:04:39.572Z,1.75
2023-05-16T00:06:41.411Z,1.60
2023-05-16T00:08:42.948Z,1.25
2023-05-16T00:10:44.472Z,1.80
2023-05-16T00:12:48.306Z,1.52
2023-05-16T00:14:51.512Z,1.33
2023-05-16T00:16:59.084Z,2.17
2023-05-16T00:19:01.047Z,1.90
2023-05-16T00:21:03.658Z,1.50
2023-05-16T00:23:05.143Z,1.23
2023-05-16T00:25:08.762Z,1.20
2023-05-16T00:27:10.487Z,1.83
2023-05-16T00:29:11.933Z,1.77
2023-05-16T00:31:13.467Z,1.38
2023-05-16T00:33:15.038Z,1.80
2023-05-16T00:35:16.576Z,1.80
2023-05-16T00:37:18.055Z,1.50
2023-05-16T00:39:19.716Z,1.92
2023-05-16T00:41:21.869Z,2.03
2023-05-16T00:43:23.443Z,2.10
2023-05-16T00:45:25.036Z,2.30
2023-05-16T00:47:26.629Z,2.35
2023-05-16T00:49:29.530Z,2.20
2023-05-16T00:51:31.335Z,1.70
2023-05-16T00:53:32.963Z,1.85
2023-05-16T00:55:34.605Z,1.73
2023-05-16T00:57:37.494Z,2.42
2023-05-16T00:59:40.169Z,2.10
2023-05-16T01:01:41.931Z,2.08
2023-05-16T01:03:47.239Z,1.98
2023-05-16T01:05:49.810Z,2.00
2023-05-16T01:07:51.343Z,2.00
2023-05-16T01:09:53.610Z,2.42
2023-05-16T01:12:21.954Z,1.48
2023-05-16T01:15:05.126Z,2.15
2023-05-16T01:17:31.261Z,1.65
2023-05-16T01:20:02.775Z,1.85
2023-05-16T01:22:29.283Z,1.70
2023-05-16T01:24:40.506Z,1.55
2023-05-16T01:26:42.215Z,3.33
2023-05-16T01:28:46.498Z,2.17
2023-05-16T01:30:48.017Z,2.25
2023-05-16T01:32:49.517Z,2.10
2023-05-16T01:34:52.111Z,1.90
2023-05-16T01:36:56.545Z,1.92
2023-05-16T01:39:19.749Z,1.77
2023-05-16T01:41:25.451Z,2.58
2023-05-16T01:43:43.278Z,2.33
2023-05-16T01:45:53.537Z,2.50
2023-05-16T01:48:07.374Z,2.03
2023-05-16T01:50:20.973Z,1.88
2023-05-16T01:52:37.937Z,2.15
2023-05-16T01:54:45.181Z,1.75
2023-05-16T01:56:55.391Z,2.65
2023-05-16T01:58:59.469Z,2.15
2023-05-16T02:01:05.693Z,1.73
2023-05-16T02:03:08.129Z,2.20
2023-05-16T02:05:09.803Z,1.77
2023-05-16T02:07:12.012Z,1.83
2023-05-16T02:09:13.486Z,2.92
2023-05-16T02:11:14.938Z,2.70
2023-05-16T02:13:16.374Z,2.40
2023-05-16T02:15:17.874Z,2.17
2023-05-16T02:17:19.308Z,2.15
2023-05-16T02:19:21.217Z,2.45
2023-05-16T02:21:22.770Z,2.47
2023-05-16T02:23:24.239Z,1.90
2023-05-16T02:25:26.303Z,1.92
2023-05-16T02:27:27.958Z,2.20
2023-05-16T02:29:29.407Z,2.45
2023-05-16T02:31:32.953Z,2.72
2023-05-16T02:33:34.712Z,2.22
2023-05-16T02:35:36.224Z,2.10
2023-05-16T02:37:38.921Z,2.40
2023-05-16T02:39:40.499Z,2.03
2023-05-16T02:41:41.965Z,3.53
2023-05-16T02:43:46.767Z,2.08
2023-05-16T02:45:48.576Z,2.05
2023-05-16T02:47:50.258Z,2.28
2023-05-16T02:49:54.576Z,2.47
2023-05-16T02:51:56.065Z,2.20
2023-05-16T02:53:59.596Z,2.30
2023-05-16T02:56:01.250Z,2.78
2023-05-16T02:58:02.720Z,2.80
2023-05-16T03:00:06.110Z,2.30
2023-05-16T03:02:08.184Z,2.63
2023-05-16T03:04:10.199Z,2.60
2023-05-16T03:06:11.780Z,2.85
2023-05-16T03:08:13.267Z,2.60
2023-05-16T03:10:14.840Z,1.90
2023-05-16T03:12:16.306Z,2.65
2023-05-16T03:14:17.814Z,2.20
2023-05-16T03:16:19.361Z,2.35
2023-05-16T03:18:21.235Z,1.95
2023-05-16T03:20:22.767Z,2.15
2023-05-16T03:22:24.221Z,1.90
2023-05-16T03:24:26.135Z,2.63
2023-05-16T03:26:27.796Z,2.00
2023-05-16T03:28:29.273Z,1.95
2023-05-16T03:30:30.833Z,2.67
2023-05-16T03:32:33.343Z,2.25
2023-05-16T03:34:34.937Z,2.33
2023-05-16T03:36:38.967Z,1.88
2023-05-16T03:38:40.820Z,1.55
2023-05-16T03:40:42.384Z,2.50
2023-05-16T03:42:43.847Z,1.70
2023-05-16T03:44:45.766Z,1.98
2023-05-16T03:46:47.245Z,2.55
2023-05-16T03:48:48.759Z,2.15
2023-05-16T03:50:51.362Z,2.28
2023-05-16T03:52:53.981Z,1.83
2023-05-16T03:54:55.475Z,2.30
2023-05-16T03:56:56.913Z,2.20
2023-05-16T03:58:58.470Z,1.70
2023-05-16T04:00:59.973Z,2.05
2023-05-16T04:03:01.469Z,2.35
2023-05-16T04:05:03.316Z,1.65
2023-05-16T04:07:04.952Z,2.08
2023-05-16T04:09:07.633Z,2.20
2023-05-16T04:11:09.110Z,3.05
2023-05-16T04:13:10.580Z,2.05
2023-05-16T04:15:12.071Z,1.90
2023-05-16T04:17:13.707Z,1.55
2023-05-16T04:19:15.489Z,1.63
2023-05-16T04:21:16.952Z,1.95
2023-05-16T04:23:18.505Z,1.30
2023-05-16T04:25:20.024Z,1.50
2023-05-16T04:27:21.786Z,2.67
2023-05-16T04:29:23.542Z,1.85
2023-05-16T04:31:28.174Z,1.83
2023-05-16T04:33:29.756Z,2.47
2023-05-16T04:35:31.255Z,2.60
2023-05-16T04:37:32.811Z,2.10
2023-05-16T04:39:35.403Z,2.97
2023-05-16T04:41:36.993Z,1.33
2023-05-16T04:43:38.500Z,2.03
2023-05-16T04:45:40.713Z,1.88
2023-05-16T04:47:42.399Z,2.30
2023-05-16T04:49:43.937Z,1.83
2023-05-16T04:51:45.420Z,2.20
2023-05-16T04:53:47.072Z,2.30
2023-05-16T04:55:48.640Z,1.88
2023-05-16T04:57:50.123Z,1.85
2023-05-16T04:59:51.585Z,1.80
2023-05-16T05:01:53.198Z,1.83
2023-05-16T05:03:54.792Z,2.05
2023-05-16T05:05:56.302Z,2.35
2023-05-16T05:07:58.798Z,2.10
2023-05-16T05:10:00.336Z,2.22
2023-05-16T05:12:01.820Z,1.65
2023-05-16T05:14:03.695Z,1.58
2023-05-16T05:16:06.066Z,1.88
2023-05-16T05:18:07.827Z,1.98
2023-05-16T05:20:10.450Z,1.65
2023-05-16T05:22:12.189Z,1.65
2023-05-16T05:24:13.672Z,2.10
2023-05-16T05:26:15.400Z,1.80
2023-05-16T05:28:16.881Z,2.00
2023-05-16T05:30:18.385Z,1.92
2023-05-16T05:32:19.891Z,1.73
2023-05-16T05:34:21.460Z,2.38
2023-05-16T05:36:22.949Z,2.47
2023-05-16T05:38:24.479Z,1.95
2023-05-16T05:40:26.238Z,1.60
2023-05-16T05:42:27.708Z,2.05
2023-05-16T05:44:29.543Z,2.08
2023-05-16T05:46:31.421Z,2.50
2023-05-16T05:48:33.075Z,1.98
2023-05-16T05:50:34.666Z,2.10
2023-05-16T05:52:36.177Z,2.15
2023-05-16T05:54:37.691Z,2.28
2023-05-16T05:56:39.150Z,1.85
2023-05-16T05:58:42.009Z,1.50
2023-05-16T06:00:43.521Z,2.38
2023-05-16T06:02:45.213Z,1.90
2023-05-16T06:04:46.837Z,2.10
2023-05-16T06:06:48.497Z,2.00
2023-05-16T06:08:49.970Z,2.20
2023-05-16T06:10:51.511Z,2.45
2023-05-16T06:12:52.960Z,2.13
2023-05-16T06:14:54.401Z,2.08
2023-05-16T06:16:56.189Z,3.35
2023-05-16T06:18:57.754Z,2.72
2023-05-16T06:20:59.291Z,1.92
2023-05-16T06:23:01.545Z,2.45
2023-05-16T06:25:03.506Z,1.70
2023-05-16T06:27:05.118Z,2.10
2023-05-16T06:29:06.660Z,1.42
2023-05-16T06:31:08.190Z,1.95
2023-05-16T06:33:09.687Z,2.30
2023-05-16T06:35:11.261Z,1.85
2023-05-16T06:37:12.732Z,3.03
2023-05-16T06:39:14.265Z,1.95
2023-05-16T06:41:15.754Z,1.48
2023-05-16T06:43:17.943Z,1.25
2023-05-16T06:45:19.427Z,2.00
2023-05-16T06:47:21.594Z,1.45
2023-05-16T06:49:23.884Z,1.98
2023-05-16T06:51:25.730Z,1.08
2023-05-16T06:53:28.734Z,2.22
2023-05-16T06:55:30.550Z,1.95
2023-05-16T06:57:32.163Z,1.95
2023-05-16T06:59:34.320Z,1.98
2023-05-16T07:01:35.865Z,1.83
2023-05-16T07:03:37.469Z,1.80
2023-05-16T07:05:39.168Z,1.67
2023-05-16T07:07:40.724Z,1.10
2023-05-16T07:09:42.204Z,1.63
2023-05-16T07:11:43.747Z,1.70
2023-05-16T07:13:45.418Z,1.50
2023-05-16T07:15:46.953Z,1.92
2023-05-16T07:17:48.613Z,1.00
2023-05-16T07:19:50.583Z,2.08
2023-05-16T07:21:52.117Z,1.58
2023-05-16T07:23:53.680Z,1.42
2023-05-16T07:25:55.245Z,1.10
2023-05-16T07:27:56.780Z,1.30
2023-05-16T07:29:58.393Z,1.38
2023-05-16T07:31:59.917Z,1.65
2023-05-16T07:34:01.434Z,1.50
2023-05-16T07:36:15.346Z,1.35
2023-05-16T07:38:18.158Z,1.48
2023-05-16T07:40:21.261Z,1.05
2023-05-16T07:42:22.817Z,1.15
2023-05-16T07:44:24.401Z,1.73
2023-05-16T07:46:26.075Z,1.80
2023-05-16T07:48:27.950Z,1.63
2023-05-16T07:50:29.548Z,1.63
2023-05-16T07:52:31.061Z,1.27
2023-05-16T07:54:33.372Z,1.20
2023-05-16T07:56:35.027Z,2.70
2023-05-16T07:58:36.714Z,1.63
2023-05-16T08:00:38.208Z,1.50
2023-05-16T08:02:39.973Z,1.20
2023-05-16T08:04:41.588Z,1.63
2023-05-16T08:06:43.153Z,1.52
2023-05-16T08:08:44.665Z,1.33
2023-05-16T08:10:46.407Z,1.45
2023-05-16T08:12:48.380Z,1.55
2023-05-16T08:14:50.055Z,1.70
2023-05-16T08:16:51.568Z,3.97
2023-05-16T08:18:53.395Z,2.80
2023-05-16T08:20:54.913Z,1.85
2023-05-16T08:22:56.484Z,1.13
2023-05-16T08:24:57.995Z,1.60
2023-05-16T08:26:59.499Z,1.58
2023-05-16T08:29:01.033Z,1.17
2023-05-16T08:31:02.562Z,1.15
2023-05-16T08:33:05.369Z,1.45
2023-05-16T08:35:07.673Z,2.53
2023-05-16T08:37:10.303Z,1.13
2023-05-16T08:39:12.413Z,1.02
2023-05-16T08:41:13.951Z,1.40
2023-05-16T08:43:15.506Z,1.30
2023-05-16T08:45:17.238Z,1.20
2023-05-16T08:47:21.690Z,1.13
2023-05-16T08:49:26.920Z,1.40
2023-05-16T08:51:32.493Z,0.85
2023-05-16T08:53:45.023Z,1.20
2023-05-16T08:55:48.584Z,1.40
2023-05-16T08:57:51.946Z,1.42
2023-05-16T08:59:55.608Z,2.75
2023-05-16T09:01:58.387Z,1.33
2023-05-16T09:04:01.253Z,1.20
2023-05-16T09:06:06.114Z,1.83
2023-05-16T09:08:09.659Z,1.75
2023-05-16T09:10:12.195Z,1.45
2023-05-16T09:12:13.719Z,1.00
2023-05-16T09:14:15.365Z,1.20
2023-05-16T09:16:21.165Z,1.30
2023-05-16T09:18:22.727Z,1.50
2023-05-16T09:20:24.259Z,3.53
2023-05-16T09:22:25.881Z,1.33
2023-05-16T09:24:27.404Z,1.10
2023-05-16T09:26:29.028Z,0.95
2023-05-16T09:28:31.803Z,1.33
2023-05-16T09:30:34.992Z,1.00
2023-05-16T09:32:36.823Z,1.50
2023-05-16T09:34:46.101Z,1.23
2023-05-16T09:36:54.815Z,1.30
2023-05-16T09:40:57.805Z,0.90
2023-05-16T09:43:07.767Z,0.80
2023-05-16T09:45:13.309Z,1.80
2023-05-16T09:47:17.203Z,1.13
2023-05-16T09:49:19.244Z,1.27
2023-05-16T09:51:23.367Z,0.80
2023-05-16T09:53:29.144Z,1.17
2023-05-16T09:55:31.884Z,1.45
2023-05-16T09:57:33.377Z,1.13
2023-05-16T09:59:41.047Z,1.00
2023-05-16T10:01:42.845Z,1.10
2023-05-16T10:03:44.555Z,1.08
2023-05-16T10:05:46.735Z,1.38
2023-05-16T10:07:49.527Z,1.00
2023-05-16T10:09:59.007Z,1.35
2023-05-16T10:12:08.434Z,1.05
2023-05-16T10:14:11.744Z,1.13
2023-05-16T10:16:14.408Z,0.93
2023-05-16T10:18:18.429Z,1.05
2023-05-16T10:20:21.325Z,1.10
2023-05-16T10:22:24.608Z,0.95
2023-05-16T10:24:43.833Z,0.40
2023-05-16T10:26:45.378Z,1.00
2023-05-16T10:28:47.665Z,0.70
2023-05-16T10:30:50.601Z,0.80
2023-05-16T10:32:53.117Z,0.82
2023-05-16T10:34:56.231Z,0.88
2023-05-16T10:36:59.207Z,1.10
2023-05-16T10:39:01.454Z,0.50
2023-05-16T10:41:03.541Z,0.90
2023-05-16T10:43:07.361Z,0.70
2023-05-16T10:45:19.978Z,1.00
2023-05-16T10:47:21.650Z,0.50
2023-05-16T10:49:24.841Z,0.80
2023-05-16T10:51:37.284Z,0.57
2023-05-16T10:53:38.813Z,1.10
2023-05-16T10:55:44.490Z,1.00
2023-05-16T10:57:46.129Z,0.68
2023-05-16T10:59:50.014Z,0.52
2023-05-16T11:01:56.652Z,0.90
2023-05-16T11:04:04.453Z,0.52
2023-05-16T11:06:06.450Z,0.37
2023-05-16T11:08:09.075Z,0.40
2023-05-16T11:10:15.561Z,0.63
2023-05-16T11:12:20.782Z,0.63
2023-05-16T11:14:23.328Z,0.57
2023-05-16T11:16:28.609Z,0.75
2023-05-16T11:18:33.112Z,0.70
2023-05-16T11:20:37.961Z,0.60
2023-05-16T11:22:41.340Z,0.80
2023-05-16T11:25:03.310Z,0.65
2023-05-16T11:27:06.444Z,0.70
2023-05-16T11:29:08.524Z,0.60
2023-05-16T11:31:10.192Z,0.80
2023-05-16T11:33:13.406Z,0.80
2023-05-16T11:35:17.517Z,0.88
2023-05-16T11:37:20.200Z,1.42
2023-05-16T11:39:24.993Z,1.10
2023-05-16T11:41:26.833Z,1.02
2023-05-16T11:43:28.319Z,1.40
2023-05-16T11:45:30.117Z,1.00
2023-05-16T11:47:32.127Z,0.98
2023-05-16T11:49:35.571Z,0.80
2023-05-16T11:51:43.579Z,1.55
2023-05-16T11:53:45.111Z,1.20
2023-05-16T11:55:54.789Z,1.33
2023-05-16T11:57:58.698Z,1.10
2023-05-16T12:00:15.014Z,0.90
2023-05-16T12:02:16.755Z,0.70
2023-05-16T12:04:20.255Z,0.80
2023-05-16T12:06:21.927Z,0.77
2023-05-16T12:08:24.676Z,0.93
2023-05-16T12:10:26.896Z,0.95
2023-05-16T12:12:28.968Z,0.80
2023-05-16T12:14:30.647Z,0.98
2023-05-16T12:16:33.044Z,1.35
2023-05-16T12:18:34.835Z,0.75
2023-05-16T12:20:36.485Z,0.70
2023-05-16T12:22:41.648Z,0.93
2023-05-16T12:24:43.161Z,0.93
2023-05-16T12:26:44.776Z,1.40
2023-05-16T12:28:46.561Z,0.73
2023-05-16T12:30:48.273Z,1.02
2023-05-16T12:32:55.687Z,0.70
2023-05-16T12:34:57.301Z,1.55
2023-05-16T12:36:59.684Z,0.93
2023-05-16T12:39:03.837Z,1.02
2023-05-16T12:41:05.332Z,1.58
2023-05-16T12:43:17.640Z,1.00
2023-05-16T12:45:19.390Z,1.30
2023-05-16T12:47:21.506Z,1.08
2023-05-16T12:49:23.290Z,1.33
2023-05-16T12:51:24.814Z,0.80
2023-05-16T12:53:26.758Z,0.90
2023-05-16T12:55:28.240Z,1.30
2023-05-16T12:57:29.737Z,0.88
2023-05-16T12:59:31.450Z,1.33
2023-05-16T13:01:34.842Z,1.08
2023-05-16T13:03:36.689Z,1.98
2023-05-16T13:05:38.538Z,0.90
2023-05-16T13:07:40.880Z,0.90
2023-05-16T13:09:42.419Z,0.70
2023-05-16T13:11:43.892Z,0.95
2023-05-16T13:13:45.554Z,1.63
2023-05-16T13:15:47.900Z,0.93
2023-05-16T13:17:49.510Z,0.93
2023-05-16T13:19:51.983Z,1.17
2023-05-16T13:21:53.463Z,1.15
2023-05-16T13:23:54.982Z,1.17
2023-05-16T13:25:56.967Z,1.33
2023-05-16T13:27:58.495Z,0.80
2023-05-16T13:30:00.394Z,1.25
2023-05-16T13:32:02.018Z,1.20
2023-05-16T13:34:04.228Z,1.13
2023-05-16T13:36:07.246Z,1.35
2023-05-16T13:38:10.791Z,1.27
2023-05-16T13:40:12.404Z,1.20
2023-05-16T13:42:13.927Z,0.95
2023-05-16T13:44:16.172Z,1.25
2023-05-16T13:46:17.945Z,0.98
2023-05-16T13:48:19.642Z,1.00
2023-05-16T13:50:21.541Z,1.23
2023-05-16T13:52:23.019Z,1.20
2023-05-16T13:54:24.558Z,0.95
2023-05-16T13:56:26.072Z,0.93
2023-05-16T13:58:27.629Z,1.05
2023-05-16T14:00:44.446Z,0.90
2023-05-16T14:02:47.670Z,0.98
2023-05-16T14:04:50.078Z,0.90
2023-05-16T14:06:51.940Z,0.90
2023-05-16T14:08:53.428Z,0.80
2023-05-16T14:10:55.098Z,0.90
2023-05-16T14:12:56.584Z,0.85
2023-05-16T14:14:59.382Z,0.82
2023-05-16T14:17:01.329Z,1.00
2023-05-16T14:19:03.094Z,0.80
2023-05-16T14:21:05.010Z,1.20
2023-05-16T14:23:06.598Z,0.93
2023-05-16T14:25:08.554Z,0.60
2023-05-16T14:27:10.167Z,1.10
2023-05-16T14:29:12.304Z,0.70
2023-05-16T14:31:13.874Z,0.82
2023-05-16T14:33:15.508Z,1.00
2023-05-16T14:35:17.227Z,1.10
2023-05-16T14:37:18.826Z,0.82
2023-05-16T14:39:20.391Z,0.98
2023-05-16T14:41:22.666Z,1.17
2023-05-16T14:43:24.169Z,1.10
2023-05-16T14:45:25.964Z,1.27
2023-05-16T14:47:28.974Z,0.98
2023-05-16T14:49:30.647Z,1.00
2023-05-16T14:51:32.353Z,0.82
2023-05-16T14:53:34.008Z,1.63
2023-05-16T14:55:35.894Z,0.88
2023-05-16T14:57:37.443Z,1.10
2023-05-16T14:59:38.973Z,1.10
2023-05-16T15:01:41.296Z,1.25
2023-05-16T15:03:54.528Z,1.00
2023-05-16T15:05:57.885Z,1.30
2023-05-16T15:08:00.265Z,1.23
2023-05-16T15:10:02.016Z,1.35
2023-05-16T15:12:03.804Z,1.13
2023-05-16T15:14:06.596Z,1.45
2023-05-16T15:16:08.253Z,1.20
2023-05-16T15:18:11.238Z,1.25
2023-05-16T15:20:13.198Z,1.52
2023-05-16T15:22:15.288Z,1.30
2023-05-16T15:24:17.971Z,1.08
2023-05-16T15:26:19.694Z,1.35
2023-05-16T15:28:22.715Z,1.50
2023-05-16T15:30:24.501Z,1.92
2023-05-16T15:32:26.293Z,1.52
2023-05-16T15:34:28.614Z,1.73
2023-05-16T15:36:30.187Z,2.03
2023-05-16T15:38:31.970Z,1.90
2023-05-16T15:40:33.476Z,2.05
2023-05-16T15:42:35.673Z,2.10
2023-05-16T15:44:37.378Z,1.70
2023-05-16T15:46:39.034Z,1.73
2023-05-16T15:48:42.858Z,1.60
2023-05-16T15:50:44.367Z,2.00
2023-05-16T15:52:45.867Z,1.95
2023-05-16T15:54:47.339Z,1.50
2023-05-16T15:56:48.966Z,1.70
2023-05-16T15:58:50.771Z,1.95
2023-05-16T16:00:53.778Z,2.08
2023-05-16T16:02:55.547Z,1.60
2023-05-16T16:04:57.119Z,1.63
2023-05-16T16:06:59.032Z,1.65
2023-05-16T16:09:00.938Z,1.52
2023-05-16T16:11:02.799Z,1.58
2023-05-16T16:13:04.707Z,1.80
2023-05-16T16:15:06.909Z,1.83
2023-05-16T16:17:08.737Z,1.58
2023-05-16T16:19:10.353Z,1.60
2023-05-16T16:21:12.540Z,2.00
2023-05-16T16:23:14.164Z,2.00
2023-05-16T16:25:16.171Z,1.48
2023-05-16T16:27:17.697Z,1.65
2023-05-16T16:29:19.192Z,1.67
2023-05-16T16:31:20.799Z,1.67
2023-05-16T16:33:22.359Z,1.70
2023-05-16T16:35:26.071Z,1.60
2023-05-16T16:37:27.848Z,1.70
2023-05-16T16:39:32.179Z,1.40
2023-05-16T16:41:34.598Z,1.52
2023-05-16T16:43:40.055Z,1.48
2023-05-16T16:45:41.587Z,1.60
2023-05-16T16:47:43.261Z,1.95
2023-05-16T16:49:45.526Z,1.70
2023-05-16T16:51:47.671Z,2.28
2023-05-16T16:53:49.195Z,1.95
2023-05-16T16:55:50.803Z,2.13
2023-05-16T16:57:52.314Z,1.92
2023-05-16T16:59:53.925Z,2.15
2023-05-16T17:01:55.520Z,2.08
2023-05-16T17:03:57.433Z,2.13
2023-05-16T17:05:58.915Z,2.38
2023-05-16T17:08:00.577Z,2.38
2023-05-16T17:10:04.701Z,2.60
2023-05-16T17:12:08.605Z,2.22
2023-05-16T17:14:14.440Z,2.30
2023-05-16T17:16:16.401Z,3.08
2023-05-16T17:18:18.050Z,2.45
2023-05-16T17:20:19.745Z,2.10
2023-05-16T17:22:22.185Z,2.40
2023-05-16T17:24:23.723Z,2.58
2023-05-16T17:26:25.304Z,2.30
2023-05-16T17:28:26.888Z,2.13
2023-05-16T17:30:28.377Z,2.25
2023-05-16T17:32:29.910Z,2.40
2023-05-16T17:34:31.810Z,2.38
2023-05-16T17:36:33.367Z,1.98
2023-05-16T17:38:34.860Z,2.20
2023-05-16T17:40:36.417Z,2.10
2023-05-16T17:42:38.437Z,2.47
2023-05-16T17:44:41.105Z,2.42
2023-05-16T17:46:43.137Z,2.70
2023-05-16T17:48:44.621Z,2.85
2023-05-16T17:50:46.199Z,2.85
2023-05-16T17:52:47.744Z,2.45
2023-05-16T17:54:49.246Z,2.67
2023-05-16T17:56:51.189Z,2.38
2023-05-16T17:58:53.432Z,2.78
2023-05-16T18:00:55.224Z,2.67
2023-05-16T18:02:56.787Z,2.75
2023-05-16T18:04:59.497Z,2.67
2023-05-16T18:07:01.350Z,2.47
2023-05-16T18:09:06.470Z,2.75
2023-05-16T18:11:08.019Z,2.33
2023-05-16T18:13:09.617Z,2.20
2023-05-16T18:15:11.989Z,1.98
2023-05-16T18:17:13.551Z,1.90
2023-05-16T18:19:15.149Z,2.40
2023-05-16T18:21:16.899Z,2.20
2023-05-16T18:23:18.396Z,2.22
2023-05-16T18:25:20.024Z,2.40
2023-05-16T18:27:21.558Z,1.88
2023-05-16T18:29:23.513Z,2.85
2023-05-16T18:31:25.117Z,2.08
2023-05-16T18:33:26.690Z,2.75
2023-05-16T18:35:28.692Z,2.45
2023-05-16T18:37:31.053Z,2.47
2023-05-16T18:39:33.059Z,2.42
2023-05-16T18:41:34.654Z,2.53
2023-05-16T18:43:36.752Z,2.45
2023-05-16T18:45:38.261Z,2.50
2023-05-16T18:47:39.878Z,2.25
2023-05-16T18:49:41.665Z,2.17
2023-05-16T18:51:44.169Z,2.55
2023-05-16T18:53:45.713Z,2.55
2023-05-16T18:55:48.595Z,2.50
2023-05-16T18:57:50.120Z,2.33
2023-05-16T18:59:53.645Z,3.05
2023-05-16T19:01:55.649Z,2.40
2023-05-16T19:03:57.605Z,2.50
2023-05-16T19:05:59.342Z,2.55
2023-05-16T19:08:00.938Z,2.20
2023-05-16T19:10:03.783Z,3.10
2023-05-16T19:12:05.996Z,2.70
2023-05-16T19:14:08.282Z,2.30
2023-05-16T19:16:10.207Z,2.50
2023-05-16T19:18:11.958Z,2.88
2023-05-16T19:20:13.580Z,2.13
2023-05-16T19:22:15.149Z,2.47
2023-05-16T19:24:16.989Z,2.58
2023-05-16T19:26:18.790Z,2.72
2023-05-16T19:28:20.528Z,2.63
2023-05-16T19:30:23.309Z,2.13
2023-05-16T19:32:24.944Z,2.00
2023-05-16T19:34:26.732Z,2.58
2023-05-16T19:36:28.433Z,2.47
2023-05-16T19:38:29.929Z,2.60
2023-05-16T19:40:33.900Z,2.55
2023-05-16T19:42:35.611Z,2.28
2023-05-16T19:44:37.112Z,1.98
2023-05-16T19:46:39.318Z,2.90
2023-05-16T19:48:41.044Z,2.35
2023-05-16T19:50:42.651Z,2.40
2023-05-16T19:52:44.225Z,2.50
2023-05-16T19:54:45.771Z,2.10
2023-05-16T19:56:47.261Z,2.22
2023-05-16T19:58:48.896Z,2.97
2023-05-16T20:00:50.875Z,2.08
2023-05-16T20:02:52.660Z,2.33
2023-05-16T20:04:54.398Z,2.45
2023-05-16T20:06:55.921Z,2.03
2023-05-16T20:08:57.442Z,2.75
2023-05-16T20:10:59.039Z,3.08
2023-05-16T20:13:00.702Z,2.58
2023-05-16T20:15:02.567Z,3.03
2023-05-16T20:17:04.227Z,2.20
2023-05-16T20:19:06.990Z,2.47
2023-05-16T20:21:08.564Z,2.40
2023-05-16T20:23:10.116Z,2.25
2023-05-16T20:25:12.036Z,2.78
2023-05-16T20:27:13.606Z,2.17
2023-05-16T20:29:15.114Z,2.33
2023-05-16T20:31:16.600Z,2.00
2023-05-16T20:33:18.196Z,2.08
2023-05-16T20:35:19.860Z,2.72
2023-05-16T20:37:26.371Z,2.08
2023-05-16T20:39:28.893Z,2.33
2023-05-16T20:41:30.444Z,2.55
2023-05-16T20:43:31.934Z,2.33
2023-05-16T20:45:33.440Z,2.70
2023-05-16T20:47:34.970Z,2.42
2023-05-16T20:49:37.788Z,2.47
2023-05-16T20:51:39.355Z,2.35
2023-05-16T20:53:40.833Z,3.00
2023-05-16T20:55:42.349Z,2.80
2023-05-16T20:57:44.006Z,2.40
2023-05-16T20:59:45.631Z,2.55
2023-05-16T21:01:47.301Z,2.50
2023-05-16T21:03:48.928Z,2.72
2023-05-16T21:05:50.500Z,2.13
2023-05-16T21:07:52.024Z,2.63
2023-05-16T21:09:53.536Z,2.53
2023-05-16T21:11:55.137Z,2.40
2023-05-16T21:13:56.625Z,2.97
2023-05-16T21:15:58.151Z,2.58
2023-05-16T21:17:59.737Z,2.47
2023-05-16T21:20:01.284Z,2.75
2023-05-16T21:22:03.995Z,2.78
2023-05-16T21:24:05.845Z,3.28
2023-05-16T21:26:07.461Z,2.53
2023-05-16T21:28:09.117Z,3.00
2023-05-16T21:30:11.297Z,3.03
2023-05-16T21:32:16.225Z,3.40
2023-05-16T21:34:17.915Z,3.17
2023-05-16T21:36:22.335Z,2.60
2023-05-16T21:38:23.890Z,3.08
2023-05-16T21:40:25.704Z,2.70
2023-05-16T21:42:27.490Z,2.60
2023-05-16T21:44:29.418Z,2.83
2023-05-16T21:46:30.914Z,2.83
2023-05-16T21:48:32.555Z,2.92
2023-05-16T21:50:34.196Z,2.60
2023-05-16T21:52:36.104Z,2.97
2023-05-16T21:54:37.613Z,2.88
2023-05-16T21:56:39.145Z,3.15
2023-05-16T21:58:42.363Z,2.78
2023-05-16T22:00:43.846Z,2.95
2023-05-16T22:02:45.574Z,3.10
2023-05-16T22:04:47.166Z,2.83
2023-05-16T22:06:48.676Z,2.83
2023-05-16T22:08:50.969Z,2.70
2023-05-16T22:10:52.838Z,3.92
2023-05-16T22:12:54.335Z,3.13
2023-05-16T22:14:55.999Z,3.30
2023-05-16T22:16:57.494Z,3.72
2023-05-16T22:18:59.066Z,3.15
2023-05-16T22:21:01.170Z,4.00
2023-05-16T22:23:02.961Z,3.50
2023-05-16T22:25:05.152Z,3.58
2023-05-16T22:27:06.851Z,3.47
2023-05-16T22:29:08.353Z,3.78
2023-05-16T22:31:09.877Z,4.60
2023-05-16T22:33:11.451Z,3.83
2023-05-16T22:35:13.730Z,3.00
2023-05-16T22:37:15.383Z,3.67
2023-05-16T22:39:16.910Z,4.22
2023-05-16T22:41:18.493Z,3.70
2023-05-16T22:43:20.206Z,3.75
2023-05-16T22:45:21.846Z,3.58
2023-05-16T22:47:23.377Z,3.70
2023-05-16T22:49:24.956Z,3.38
2023-05-16T22:51:26.547Z,3.63
2023-05-16T22:53:28.507Z,4.43
2023-05-16T22:55:30.301Z,4.05
2023-05-16T22:57:32.060Z,3.60
2023-05-16T22:59:34.171Z,3.92
2023-05-16T23:01:35.827Z,4.78
2023-05-16T23:03:37.472Z,3.78
2023-05-16T23:05:39.006Z,4.03
2023-05-16T23:07:41.340Z,3.60
2023-05-16T23:09:43.221Z,3.47
2023-05-16T23:11:44.717Z,3.72
2023-05-16T23:13:46.476Z,4.50
2023-05-16T23:15:48.015Z,5.40
2023-05-16T23:17:49.603Z,3.50
2023-05-16T23:19:51.560Z,3.88
2023-05-16T23:21:53.115Z,4.55
2023-05-16T23:23:54.584Z,3.78
2023-05-16T23:25:56.098Z,4.78
2023-05-16T23:27:57.919Z,4.15
2023-05-16T23:29:59.555Z,3.83
2023-05-16T23:32:01.132Z,4.18
2023-05-16T23:34:02.740Z,4.93
2023-05-16T23:36:04.711Z,4.53
2023-05-16T23:38:06.185Z,4.00
2023-05-16T23:40:08.506Z,3.85
2023-05-16T23:42:10.068Z,4.53
2023-05-16T23:44:11.575Z,4.05
2023-05-16T23:46:13.068Z,4.78
2023-05-16T23:48:14.795Z,3.85
2023-05-16T23:50:17.415Z,4.82
2023-05-16T23:52:19.136Z,3.60
2023-05-16T23:54:20.793Z,4.20
2023-05-16T23:56:22.489Z,4.28
2023-05-16T23:58:24.018Z,3.90
